sensor_id;sensor_type;location;lat;lon;timestamp;P1;durP1;ratioP1;P2;durP2;ratioP2
78856;SDS011;68207;50.078;19.936;2023-08-07T00:02:06;4.40;;;2.20;;
78856;SDS011;68207;50.078;19.936;2023-08-07T00:04:32;2.70;;;2.20;;
78856;SDS011;68207;50.078;19.936;2023-08-07T00:06:57;4.70;;;2.50;;
78856;SDS011;68207;50.078;19.936;2023-08-07T00:09:22;3.60;;;2.20;;
78856;SDS011;68207;50.078;19.936;2023-08-07T00:11:47;2.80;;;2.50;;
78856;SDS011;68207;50.078;19.936;2023-08-07T00:14:12;5.60;;;2.30;;
78856;SDS011;68207;50.078;19.936;2023-08-07T00:16:37;3.10;;;2.60;;
78856;SDS011;68207;50.078;19.936;2023-08-07T00:19:03;4.10;;;2.30;;
78856;SDS011;68207;50.078;19.936;2023-08-07T00:21:28;4.50;;;2.40;;
78856;SDS011;68207;50.078;19.936;2023-08-07T00:23:53;3.00;;;2.10;;
78856;SDS011;68207;50.078;19.936;2023-08-07T00:28:44;3.00;;;2.20;;
78856;SDS011;68207;50.078;19.936;2023-08-07T00:31:10;4.90;;;2.60;;
78856;SDS011;68207;50.078;19.936;2023-08-07T00:33:35;3.30;;;2.70;;
78856;SDS011;68207;50.078;19.936;2023-08-07T00:36:00;3.50;;;2.60;;
78856;SDS011;68207;50.078;19.936;2023-08-07T00:38:25;3.40;;;2.60;;
78856;SDS011;68207;50.078;19.936;2023-08-07T00:40:50;2.90;;;2.10;;
78856;SDS011;68207;50.078;19.936;2023-08-07T00:43:16;3.80;;;2.50;;
78856;SDS011;68207;50.078;19.936;2023-08-07T00:45:46;4.70;;;2.30;;
78856;SDS011;68207;50.078;19.936;2023-08-07T00:48:11;2.90;;;2.40;;
78856;SDS011;68207;50.078;19.936;2023-08-07T00:50:37;3.40;;;2.20;;
78856;SDS011;68207;50.078;19.936;2023-08-07T00:53:02;2.90;;;2.40;;
78856;SDS011;68207;50.078;19.936;2023-08-07T00:55:28;4.00;;;2.20;;
78856;SDS011;68207;50.078;19.936;2023-08-07T00:57:53;4.50;;;2.40;;
78856;SDS011;68207;50.078;19.936;2023-08-07T01:00:18;3.20;;;2.30;;
78856;SDS011;68207;50.078;19.936;2023-08-07T01:02:45;3.10;;;2.30;;
78856;SDS011;68207;50.078;19.936;2023-08-07T01:05:10;3.80;;;2.20;;
78856;SDS011;68207;50.078;19.936;2023-08-07T01:07:35;4.10;;;2.70;;
78856;SDS011;68207;50.078;19.936;2023-08-07T01:10:01;3.90;;;2.30;;
78856;SDS011;68207;50.078;19.936;2023-08-07T01:12:36;2.90;;;2.50;;
78856;SDS011;68207;50.078;19.936;2023-08-07T01:15:12;2.60;;;2.30;;
78856;SDS011;68207;50.078;19.936;2023-08-07T01:17:39;4.30;;;2.40;;
78856;SDS011;68207;50.078;19.936;2023-08-07T01:20:06;3.70;;;2.50;;
78856;SDS011;68207;50.078;19.936;2023-08-07T01:22:32;4.40;;;2.90;;
78856;SDS011;68207;50.078;19.936;2023-08-07T01:24:57;5.20;;;2.60;;
78856;SDS011;68207;50.078;19.936;2023-08-07T01:32:26;2.90;;;2.30;;
78856;SDS011;68207;50.078;19.936;2023-08-07T01:34:52;4.30;;;2.40;;
78856;SDS011;68207;50.078;19.936;2023-08-07T01:37:19;3.90;;;2.60;;
78856;SDS011;68207;50.078;19.936;2023-08-07T01:39:45;5.00;;;2.50;;
78856;SDS011;68207;50.078;19.936;2023-08-07T01:42:11;4.20;;;2.70;;
78856;SDS011;68207;50.078;19.936;2023-08-07T01:44:37;2.90;;;2.30;;
78856;SDS011;68207;50.078;19.936;2023-08-07T01:47:02;3.40;;;2.30;;
78856;SDS011;68207;50.078;19.936;2023-08-07T01:49:28;3.60;;;2.50;;
78856;SDS011;68207;50.078;19.936;2023-08-07T01:51:53;3.80;;;2.40;;
78856;SDS011;68207;50.078;19.936;2023-08-07T01:54:18;3.80;;;2.80;;
78856;SDS011;68207;50.078;19.936;2023-08-07T01:56:43;3.10;;;2.50;;
78856;SDS011;68207;50.078;19.936;2023-08-07T01:59:08;4.00;;;2.70;;
78856;SDS011;68207;50.078;19.936;2023-08-07T02:01:33;4.40;;;2.50;;
78856;SDS011;68207;50.078;19.936;2023-08-07T02:03:59;4.50;;;2.60;;
78856;SDS011;68207;50.078;19.936;2023-08-07T02:06:24;4.90;;;2.70;;
78856;SDS011;68207;50.078;19.936;2023-08-07T02:08:49;4.50;;;2.90;;
78856;SDS011;68207;50.078;19.936;2023-08-07T02:11:14;4.20;;;2.50;;
78856;SDS011;68207;50.078;19.936;2023-08-07T02:13:39;4.00;;;2.60;;
78856;SDS011;68207;50.078;19.936;2023-08-07T02:16:05;3.00;;;2.40;;
78856;SDS011;68207;50.078;19.936;2023-08-07T02:18:30;5.90;;;2.70;;
78856;SDS011;68207;50.078;19.936;2023-08-07T02:20:55;3.80;;;2.70;;
78856;SDS011;68207;50.078;19.936;2023-08-07T02:23:20;3.60;;;2.80;;
78856;SDS011;68207;50.078;19.936;2023-08-07T02:25:45;3.40;;;2.70;;
78856;SDS011;68207;50.078;19.936;2023-08-07T02:28:11;3.00;;;2.50;;
78856;SDS011;68207;50.078;19.936;2023-08-07T02:30:36;3.70;;;2.50;;
78856;SDS011;68207;50.078;19.936;2023-08-07T02:33:01;3.50;;;2.50;;
78856;SDS011;68207;50.078;19.936;2023-08-07T02:35:26;4.90;;;2.80;;
78856;SDS011;68207;50.078;19.936;2023-08-07T02:37:52;4.00;;;2.70;;
78856;SDS011;68207;50.078;19.936;2023-08-07T02:40:17;3.90;;;2.60;;
78856;SDS011;68207;50.078;19.936;2023-08-07T02:42:44;3.70;;;2.70;;
78856;SDS011;68207;50.078;19.936;2023-08-07T02:45:09;4.10;;;2.80;;
78856;SDS011;68207;50.078;19.936;2023-08-07T02:47:34;3.40;;;2.20;;
78856;SDS011;68207;50.078;19.936;2023-08-07T02:49:59;4.60;;;2.70;;
78856;SDS011;68207;50.078;19.936;2023-08-07T02:52:25;5.10;;;2.70;;
78856;SDS011;68207;50.078;19.936;2023-08-07T02:54:50;6.40;;;2.70;;
78856;SDS011;68207;50.078;19.936;2023-08-07T02:57:15;3.50;;;2.70;;
78856;SDS011;68207;50.078;19.936;2023-08-07T02:59:40;4.70;;;2.60;;
78856;SDS011;68207;50.078;19.936;2023-08-07T03:02:05;4.80;;;2.60;;
78856;SDS011;68207;50.078;19.936;2023-08-07T03:04:30;4.60;;;2.90;;
78856;SDS011;68207;50.078;19.936;2023-08-07T03:06:56;3.80;;;3.00;;
78856;SDS011;68207;50.078;19.936;2023-08-07T03:09:21;3.50;;;2.80;;
78856;SDS011;68207;50.078;19.936;2023-08-07T03:11:46;4.90;;;2.50;;
78856;SDS011;68207;50.078;19.936;2023-08-07T03:14:11;4.40;;;3.00;;
78856;SDS011;68207;50.078;19.936;2023-08-07T03:16:36;4.90;;;2.80;;
78856;SDS011;68207;50.078;19.936;2023-08-07T03:19:02;3.40;;;2.60;;
78856;SDS011;68207;50.078;19.936;2023-08-07T03:21:27;3.30;;;2.30;;
78856;SDS011;68207;50.078;19.936;2023-08-07T03:23:52;3.40;;;2.50;;
78856;SDS011;68207;50.078;19.936;2023-08-07T03:26:17;3.30;;;2.60;;
78856;SDS011;68207;50.078;19.936;2023-08-07T03:28:42;5.10;;;2.80;;
78856;SDS011;68207;50.078;19.936;2023-08-07T03:31:10;7.40;;;2.80;;
78856;SDS011;68207;50.078;19.936;2023-08-07T03:33:35;5.60;;;2.70;;
78856;SDS011;68207;50.078;19.936;2023-08-07T03:36:00;3.40;;;2.50;;
78856;SDS011;68207;50.078;19.936;2023-08-07T03:38:26;4.70;;;2.60;;
78856;SDS011;68207;50.078;19.936;2023-08-07T03:40:51;4.40;;;2.90;;
78856;SDS011;68207;50.078;19.936;2023-08-07T03:43:16;5.00;;;2.60;;
78856;SDS011;68207;50.078;19.936;2023-08-07T03:45:41;5.40;;;2.50;;
78856;SDS011;68207;50.078;19.936;2023-08-07T03:48:06;3.90;;;2.60;;
78856;SDS011;68207;50.078;19.936;2023-08-07T03:50:31;4.40;;;2.70;;
78856;SDS011;68207;50.078;19.936;2023-08-07T03:52:59;3.20;;;2.60;;
78856;SDS011;68207;50.078;19.936;2023-08-07T03:55:25;4.80;;;2.50;;
78856;SDS011;68207;50.078;19.936;2023-08-07T03:57:50;4.30;;;2.20;;
78856;SDS011;68207;50.078;19.936;2023-08-07T04:00:15;3.70;;;2.10;;
78856;SDS011;68207;50.078;19.936;2023-08-07T04:02:40;2.90;;;2.20;;
78856;SDS011;68207;50.078;19.936;2023-08-07T04:05:06;4.00;;;2.40;;
78856;SDS011;68207;50.078;19.936;2023-08-07T04:07:31;3.90;;;2.40;;
78856;SDS011;68207;50.078;19.936;2023-08-07T04:09:56;3.00;;;2.50;;
78856;SDS011;68207;50.078;19.936;2023-08-07T04:12:21;5.40;;;2.60;;
78856;SDS011;68207;50.078;19.936;2023-08-07T04:14:47;3.70;;;2.00;;
78856;SDS011;68207;50.078;19.936;2023-08-07T04:17:12;4.00;;;2.60;;
78856;SDS011;68207;50.078;19.936;2023-08-07T04:19:37;4.30;;;2.30;;
78856;SDS011;68207;50.078;19.936;2023-08-07T04:22:02;4.50;;;2.60;;
78856;SDS011;68207;50.078;19.936;2023-08-07T04:24:27;3.60;;;2.30;;
78856;SDS011;68207;50.078;19.936;2023-08-07T04:26:53;2.80;;;2.20;;
78856;SDS011;68207;50.078;19.936;2023-08-07T04:29:18;4.70;;;2.60;;
78856;SDS011;68207;50.078;19.936;2023-08-07T04:31:43;2.80;;;2.10;;
78856;SDS011;68207;50.078;19.936;2023-08-07T04:34:08;3.30;;;2.30;;
78856;SDS011;68207;50.078;19.936;2023-08-07T04:36:34;3.30;;;2.10;;
78856;SDS011;68207;50.078;19.936;2023-08-07T04:38:59;3.90;;;2.20;;
78856;SDS011;68207;50.078;19.936;2023-08-07T04:41:24;3.10;;;2.00;;
78856;SDS011;68207;50.078;19.936;2023-08-07T04:43:49;3.50;;;2.20;;
78856;SDS011;68207;50.078;19.936;2023-08-07T04:46:14;2.90;;;1.80;;
78856;SDS011;68207;50.078;19.936;2023-08-07T04:48:40;3.10;;;1.90;;
78856;SDS011;68207;50.078;19.936;2023-08-07T04:51:05;3.80;;;1.80;;
78856;SDS011;68207;50.078;19.936;2023-08-07T04:53:30;2.30;;;1.80;;
78856;SDS011;68207;50.078;19.936;2023-08-07T04:55:55;2.00;;;1.60;;
78856;SDS011;68207;50.078;19.936;2023-08-07T04:58:21;2.20;;;1.60;;
78856;SDS011;68207;50.078;19.936;2023-08-07T05:00:46;3.80;;;1.90;;
78856;SDS011;68207;50.078;19.936;2023-08-07T05:03:12;2.70;;;1.60;;
78856;SDS011;68207;50.078;19.936;2023-08-07T05:05:37;2.30;;;1.60;;
78856;SDS011;68207;50.078;19.936;2023-08-07T05:08:02;1.90;;;1.60;;
78856;SDS011;68207;50.078;19.936;2023-08-07T05:10:27;2.30;;;1.70;;
78856;SDS011;68207;50.078;19.936;2023-08-07T05:12:53;2.60;;;1.50;;
78856;SDS011;68207;50.078;19.936;2023-08-07T05:15:21;2.50;;;1.60;;
78856;SDS011;68207;50.078;19.936;2023-08-07T05:17:47;3.10;;;1.60;;
78856;SDS011;68207;50.078;19.936;2023-08-07T05:20:12;1.90;;;1.50;;
78856;SDS011;68207;50.078;19.936;2023-08-07T05:22:37;3.40;;;1.80;;
78856;SDS011;68207;50.078;19.936;2023-08-07T05:25:03;2.10;;;1.40;;
78856;SDS011;68207;50.078;19.936;2023-08-07T05:27:28;4.40;;;2.10;;
78856;SDS011;68207;50.078;19.936;2023-08-07T05:29:53;2.30;;;1.50;;
78856;SDS011;68207;50.078;19.936;2023-08-07T05:32:18;2.20;;;1.40;;
78856;SDS011;68207;50.078;19.936;2023-08-07T05:34:44;6.10;;;1.90;;
78856;SDS011;68207;50.078;19.936;2023-08-07T05:37:09;4.80;;;1.50;;
78856;SDS011;68207;50.078;19.936;2023-08-07T05:39:34;2.00;;;1.40;;
78856;SDS011;68207;50.078;19.936;2023-08-07T05:42:00;3.30;;;1.10;;
78856;SDS011;68207;50.078;19.936;2023-08-07T05:44:25;2.50;;;1.30;;
78856;SDS011;68207;50.078;19.936;2023-08-07T05:46:50;1.50;;;1.00;;
78856;SDS011;68207;50.078;19.936;2023-08-07T05:49:15;1.70;;;1.00;;
78856;SDS011;68207;50.078;19.936;2023-08-07T05:51:40;1.00;;;0.90;;
78856;SDS011;68207;50.078;19.936;2023-08-07T05:54:06;2.70;;;1.10;;
78856;SDS011;68207;50.078;19.936;2023-08-07T05:56:31;3.00;;;0.90;;
78856;SDS011;68207;50.078;19.936;2023-08-07T05:58:56;2.20;;;1.10;;
78856;SDS011;68207;50.078;19.936;2023-08-07T06:01:21;1.80;;;1.10;;
78856;SDS011;68207;50.078;19.936;2023-08-07T06:03:47;3.00;;;1.10;;
78856;SDS011;68207;50.078;19.936;2023-08-07T06:06:12;2.10;;;0.80;;
78856;SDS011;68207;50.078;19.936;2023-08-07T06:08:37;1.50;;;1.10;;
78856;SDS011;68207;50.078;19.936;2023-08-07T06:11:03;2.50;;;0.80;;
78856;SDS011;68207;50.078;19.936;2023-08-07T06:13:29;3.90;;;1.10;;
78856;SDS011;68207;50.078;19.936;2023-08-07T06:15:55;3.00;;;1.00;;
78856;SDS011;68207;50.078;19.936;2023-08-07T06:18:20;2.20;;;1.20;;
78856;SDS011;68207;50.078;19.936;2023-08-07T06:20:45;1.70;;;1.20;;
78856;SDS011;68207;50.078;19.936;2023-08-07T06:23:11;1.00;;;0.90;;
78856;SDS011;68207;50.078;19.936;2023-08-07T06:25:36;2.50;;;1.20;;
78856;SDS011;68207;50.078;19.936;2023-08-07T06:28:01;1.80;;;0.90;;
78856;SDS011;68207;50.078;19.936;2023-08-07T06:30:26;1.30;;;0.80;;
78856;SDS011;68207;50.078;19.936;2023-08-07T06:32:52;6.20;;;1.20;;
78856;SDS011;68207;50.078;19.936;2023-08-07T06:35:17;5.30;;;1.10;;
78856;SDS011;68207;50.078;19.936;2023-08-07T06:37:42;3.50;;;1.20;;
78856;SDS011;68207;50.078;19.936;2023-08-07T06:40:07;2.40;;;0.90;;
78856;SDS011;68207;50.078;19.936;2023-08-07T06:42:33;1.00;;;0.90;;
78856;SDS011;68207;50.078;19.936;2023-08-07T06:44:58;3.00;;;1.30;;
78856;SDS011;68207;50.078;19.936;2023-08-07T06:47:23;2.50;;;1.00;;
78856;SDS011;68207;50.078;19.936;2023-08-07T06:49:48;1.50;;;1.20;;
78856;SDS011;68207;50.078;19.936;2023-08-07T06:52:13;2.90;;;1.20;;
78856;SDS011;68207;50.078;19.936;2023-08-07T06:54:38;1.70;;;1.20;;
78856;SDS011;68207;50.078;19.936;2023-08-07T06:57:04;1.80;;;0.80;;
78856;SDS011;68207;50.078;19.936;2023-08-07T06:59:29;2.60;;;1.30;;
78856;SDS011;68207;50.078;19.936;2023-08-07T07:01:54;2.70;;;1.20;;
78856;SDS011;68207;50.078;19.936;2023-08-07T07:04:19;2.30;;;1.00;;
78856;SDS011;68207;50.078;19.936;2023-08-07T07:06:44;5.10;;;1.10;;
78856;SDS011;68207;50.078;19.936;2023-08-07T07:09:10;3.10;;;1.20;;
78856;SDS011;68207;50.078;19.936;2023-08-07T07:11:35;3.00;;;1.20;;
78856;SDS011;68207;50.078;19.936;2023-08-07T07:14:00;3.70;;;1.10;;
78856;SDS011;68207;50.078;19.936;2023-08-07T07:16:25;3.00;;;0.90;;
78856;SDS011;68207;50.078;19.936;2023-08-07T07:18:51;2.90;;;1.20;;
78856;SDS011;68207;50.078;19.936;2023-08-07T07:21:16;4.20;;;1.00;;
78856;SDS011;68207;50.078;19.936;2023-08-07T07:23:42;1.50;;;1.10;;
78856;SDS011;68207;50.078;19.936;2023-08-07T07:26:07;1.20;;;0.80;;
78856;SDS011;68207;50.078;19.936;2023-08-07T07:28:32;4.30;;;1.10;;
78856;SDS011;68207;50.078;19.936;2023-08-07T07:30:57;4.30;;;1.40;;
78856;SDS011;68207;50.078;19.936;2023-08-07T07:33:22;2.80;;;0.90;;
78856;SDS011;68207;50.078;19.936;2023-08-07T07:35:48;1.70;;;0.90;;
78856;SDS011;68207;50.078;19.936;2023-08-07T07:38:13;1.70;;;0.50;;
78856;SDS011;68207;50.078;19.936;2023-08-07T07:40:40;1.70;;;1.00;;
78856;SDS011;68207;50.078;19.936;2023-08-07T07:43:05;1.40;;;1.00;;
78856;SDS011;68207;50.078;19.936;2023-08-07T07:45:30;0.70;;;0.70;;
78856;SDS011;68207;50.078;19.936;2023-08-07T07:47:56;2.30;;;1.00;;
78856;SDS011;68207;50.078;19.936;2023-08-07T07:50:21;1.20;;;0.90;;
78856;SDS011;68207;50.078;19.936;2023-08-07T07:52:46;2.40;;;0.80;;
78856;SDS011;68207;50.078;19.936;2023-08-07T07:55:11;3.70;;;1.30;;
78856;SDS011;68207;50.078;19.936;2023-08-07T07:57:38;3.70;;;1.00;;
78856;SDS011;68207;50.078;19.936;2023-08-07T08:00:03;1.40;;;0.80;;
78856;SDS011;68207;50.078;19.936;2023-08-07T08:02:32;1.20;;;0.80;;
78856;SDS011;68207;50.078;19.936;2023-08-07T08:04:58;0.80;;;0.70;;
78856;SDS011;68207;50.078;19.936;2023-08-07T08:07:23;1.70;;;0.70;;
78856;SDS011;68207;50.078;19.936;2023-08-07T08:09:48;2.90;;;0.80;;
78856;SDS011;68207;50.078;19.936;2023-08-07T08:12:14;0.80;;;0.80;;
78856;SDS011;68207;50.078;19.936;2023-08-07T08:14:39;0.80;;;0.50;;
78856;SDS011;68207;50.078;19.936;2023-08-07T08:17:04;0.90;;;0.80;;
78856;SDS011;68207;50.078;19.936;2023-08-07T08:19:29;1.20;;;0.80;;
78856;SDS011;68207;50.078;19.936;2023-08-07T08:21:55;1.50;;;0.90;;
78856;SDS011;68207;50.078;19.936;2023-08-07T08:24:20;4.00;;;1.40;;
78856;SDS011;68207;50.078;19.936;2023-08-07T08:26:45;1.30;;;0.80;;
78856;SDS011;68207;50.078;19.936;2023-08-07T08:29:13;1.50;;;0.90;;
78856;SDS011;68207;50.078;19.936;2023-08-07T08:31:41;4.00;;;0.90;;
78856;SDS011;68207;50.078;19.936;2023-08-07T08:34:07;1.50;;;0.90;;
78856;SDS011;68207;50.078;19.936;2023-08-07T08:36:32;1.90;;;1.30;;
78856;SDS011;68207;50.078;19.936;2023-08-07T08:38:57;1.20;;;0.80;;
78856;SDS011;68207;50.078;19.936;2023-08-07T08:41:23;0.70;;;0.70;;
78856;SDS011;68207;50.078;19.936;2023-08-07T08:43:48;1.30;;;0.70;;
78856;SDS011;68207;50.078;19.936;2023-08-07T08:46:15;1.10;;;0.80;;
78856;SDS011;68207;50.078;19.936;2023-08-07T08:48:41;1.90;;;1.00;;
78856;SDS011;68207;50.078;19.936;2023-08-07T08:51:09;1.40;;;0.80;;
78856;SDS011;68207;50.078;19.936;2023-08-07T08:53:36;3.40;;;0.90;;
78856;SDS011;68207;50.078;19.936;2023-08-07T08:56:02;1.00;;;0.70;;
78856;SDS011;68207;50.078;19.936;2023-08-07T08:58:27;0.50;;;0.50;;
78856;SDS011;68207;50.078;19.936;2023-08-07T09:00:53;2.80;;;1.10;;
78856;SDS011;68207;50.078;19.936;2023-08-07T09:03:18;1.00;;;0.70;;
78856;SDS011;68207;50.078;19.936;2023-08-07T09:05:43;3.10;;;1.00;;
78856;SDS011;68207;50.078;19.936;2023-08-07T09:08:09;4.20;;;1.20;;
78856;SDS011;68207;50.078;19.936;2023-08-07T09:10:35;2.60;;;1.30;;
78856;SDS011;68207;50.078;19.936;2023-08-07T09:13:02;0.80;;;0.70;;
78856;SDS011;68207;50.078;19.936;2023-08-07T09:15:30;2.00;;;0.90;;
78856;SDS011;68207;50.078;19.936;2023-08-07T09:20:21;2.00;;;1.00;;
78856;SDS011;68207;50.078;19.936;2023-08-07T09:22:47;1.00;;;0.80;;
78856;SDS011;68207;50.078;19.936;2023-08-07T09:25:13;2.60;;;0.90;;
78856;SDS011;68207;50.078;19.936;2023-08-07T09:27:38;1.20;;;1.00;;
78856;SDS011;68207;50.078;19.936;2023-08-07T09:30:07;3.10;;;1.10;;
78856;SDS011;68207;50.078;19.936;2023-08-07T09:32:35;1.30;;;1.00;;
78856;SDS011;68207;50.078;19.936;2023-08-07T09:35:04;5.30;;;1.00;;
78856;SDS011;68207;50.078;19.936;2023-08-07T09:37:30;2.30;;;1.20;;
78856;SDS011;68207;50.078;19.936;2023-08-07T09:39:55;1.70;;;1.00;;
78856;SDS011;68207;50.078;19.936;2023-08-07T09:42:20;1.80;;;1.00;;
78856;SDS011;68207;50.078;19.936;2023-08-07T09:44:46;1.50;;;1.10;;
78856;SDS011;68207;50.078;19.936;2023-08-07T09:47:15;2.10;;;0.80;;
78856;SDS011;68207;50.078;19.936;2023-08-07T09:49:41;1.90;;;0.70;;
78856;SDS011;68207;50.078;19.936;2023-08-07T09:52:07;1.00;;;0.90;;
78856;SDS011;68207;50.078;19.936;2023-08-07T09:54:32;2.20;;;1.00;;
78856;SDS011;68207;50.078;19.936;2023-08-07T09:56:58;1.10;;;0.90;;
78856;SDS011;68207;50.078;19.936;2023-08-07T09:59:23;1.20;;;0.90;;
78856;SDS011;68207;50.078;19.936;2023-08-07T10:01:48;1.00;;;0.90;;
78856;SDS011;68207;50.078;19.936;2023-08-07T10:04:14;3.00;;;0.90;;
78856;SDS011;68207;50.078;19.936;2023-08-07T10:06:41;1.80;;;0.80;;
78856;SDS011;68207;50.078;19.936;2023-08-07T10:09:06;1.00;;;0.80;;
78856;SDS011;68207;50.078;19.936;2023-08-07T10:11:32;2.10;;;1.00;;
78856;SDS011;68207;50.078;19.936;2023-08-07T10:13:57;1.20;;;1.00;;
78856;SDS011;68207;50.078;19.936;2023-08-07T10:16:23;1.40;;;1.00;;
78856;SDS011;68207;50.078;19.936;2023-08-07T10:18:49;1.80;;;1.20;;
78856;SDS011;68207;50.078;19.936;2023-08-07T10:21:14;2.20;;;0.90;;
78856;SDS011;68207;50.078;19.936;2023-08-07T10:23:40;3.40;;;1.10;;
78856;SDS011;68207;50.078;19.936;2023-08-07T10:30:57;1.50;;;1.00;;
78856;SDS011;68207;50.078;19.936;2023-08-07T10:33:23;0.50;;;0.50;;
78856;SDS011;68207;50.078;19.936;2023-08-07T10:35:49;1.20;;;0.80;;
78856;SDS011;68207;50.078;19.936;2023-08-07T10:38:18;0.80;;;0.70;;
78856;SDS011;68207;50.078;19.936;2023-08-07T10:40:57;1.20;;;1.00;;
78856;SDS011;68207;50.078;19.936;2023-08-07T10:43:23;3.00;;;0.80;;
78856;SDS011;68207;50.078;19.936;2023-08-07T10:45:49;1.10;;;1.00;;
78856;SDS011;68207;50.078;19.936;2023-08-07T10:48:18;2.30;;;0.90;;
78856;SDS011;68207;50.078;19.936;2023-08-07T10:51:03;2.40;;;1.20;;
78856;SDS011;68207;50.078;19.936;2023-08-07T10:58:26;2.80;;;0.90;;
78856;SDS011;68207;50.078;19.936;2023-08-07T11:00:52;5.10;;;1.50;;
78856;SDS011;68207;50.078;19.936;2023-08-07T11:03:26;4.70;;;1.40;;
78856;SDS011;68207;50.078;19.936;2023-08-07T11:05:53;3.00;;;1.40;;
78856;SDS011;68207;50.078;19.936;2023-08-07T11:08:21;2.40;;;1.40;;
78856;SDS011;68207;50.078;19.936;2023-08-07T11:10:46;1.70;;;1.10;;
78856;SDS011;68207;50.078;19.936;2023-08-07T11:13:11;2.30;;;1.10;;
78856;SDS011;68207;50.078;19.936;2023-08-07T11:15:37;2.40;;;1.20;;
78856;SDS011;68207;50.078;19.936;2023-08-07T11:18:02;1.80;;;1.10;;
78856;SDS011;68207;50.078;19.936;2023-08-07T11:20:27;0.80;;;0.80;;
78856;SDS011;68207;50.078;19.936;2023-08-07T11:22:54;1.00;;;0.90;;
78856;SDS011;68207;50.078;19.936;2023-08-07T11:25:19;1.20;;;1.10;;
78856;SDS011;68207;50.078;19.936;2023-08-07T11:27:44;1.20;;;1.10;;
78856;SDS011;68207;50.078;19.936;2023-08-07T11:30:10;1.10;;;0.90;;
78856;SDS011;68207;50.078;19.936;2023-08-07T11:32:36;1.90;;;1.20;;
78856;SDS011;68207;50.078;19.936;2023-08-07T11:35:01;3.00;;;1.20;;
78856;SDS011;68207;50.078;19.936;2023-08-07T11:37:28;1.40;;;1.10;;
78856;SDS011;68207;50.078;19.936;2023-08-07T11:39:53;2.20;;;1.50;;
78856;SDS011;68207;50.078;19.936;2023-08-07T11:42:27;2.50;;;1.40;;
78856;SDS011;68207;50.078;19.936;2023-08-07T11:44:52;1.70;;;1.20;;
78856;SDS011;68207;50.078;19.936;2023-08-07T11:47:17;2.80;;;1.20;;
78856;SDS011;68207;50.078;19.936;2023-08-07T11:49:42;3.80;;;1.20;;
78856;SDS011;68207;50.078;19.936;2023-08-07T11:52:08;1.50;;;1.10;;
78856;SDS011;68207;50.078;19.936;2023-08-07T11:54:33;3.00;;;1.50;;
78856;SDS011;68207;50.078;19.936;2023-08-07T11:56:58;2.10;;;1.20;;
78856;SDS011;68207;50.078;19.936;2023-08-07T11:59:23;1.30;;;1.10;;
78856;SDS011;68207;50.078;19.936;2023-08-07T12:01:49;2.40;;;1.70;;
78856;SDS011;68207;50.078;19.936;2023-08-07T12:04:14;2.70;;;1.50;;
78856;SDS011;68207;50.078;19.936;2023-08-07T12:06:45;1.50;;;1.30;;
78856;SDS011;68207;50.078;19.936;2023-08-07T12:09:17;2.00;;;1.20;;
78856;SDS011;68207;50.078;19.936;2023-08-07T12:11:42;1.10;;;1.00;;
78856;SDS011;68207;50.078;19.936;2023-08-07T12:14:07;2.60;;;1.40;;
78856;SDS011;68207;50.078;19.936;2023-08-07T12:16:35;1.40;;;1.10;;
78856;SDS011;68207;50.078;19.936;2023-08-07T12:19:00;1.70;;;1.00;;
78856;SDS011;68207;50.078;19.936;2023-08-07T12:21:26;3.70;;;1.30;;
78856;SDS011;68207;50.078;19.936;2023-08-07T12:23:55;3.20;;;1.50;;
78856;SDS011;68207;50.078;19.936;2023-08-07T12:26:21;2.50;;;1.50;;
78856;SDS011;68207;50.078;19.936;2023-08-07T12:28:47;1.70;;;1.40;;
78856;SDS011;68207;50.078;19.936;2023-08-07T12:31:12;3.00;;;2.00;;
78856;SDS011;68207;50.078;19.936;2023-08-07T12:33:37;3.30;;;1.70;;
78856;SDS011;68207;50.078;19.936;2023-08-07T12:36:02;2.70;;;1.60;;
78856;SDS011;68207;50.078;19.936;2023-08-07T12:38:27;4.40;;;1.60;;
78856;SDS011;68207;50.078;19.936;2023-08-07T12:40:53;3.50;;;1.80;;
78856;SDS011;68207;50.078;19.936;2023-08-07T12:43:18;2.00;;;1.60;;
78856;SDS011;68207;50.078;19.936;2023-08-07T12:45:43;2.30;;;1.50;;
78856;SDS011;68207;50.078;19.936;2023-08-07T12:48:09;3.70;;;1.80;;
78856;SDS011;68207;50.078;19.936;2023-08-07T12:50:34;3.20;;;1.70;;
78856;SDS011;68207;50.078;19.936;2023-08-07T12:52:59;4.00;;;2.00;;
78856;SDS011;68207;50.078;19.936;2023-08-07T12:55:24;4.30;;;2.00;;
78856;SDS011;68207;50.078;19.936;2023-08-07T12:57:50;4.00;;;2.10;;
78856;SDS011;68207;50.078;19.936;2023-08-07T13:00:15;2.70;;;1.90;;
78856;SDS011;68207;50.078;19.936;2023-08-07T13:02:41;3.40;;;1.70;;
78856;SDS011;68207;50.078;19.936;2023-08-07T13:05:07;3.40;;;2.10;;
78856;SDS011;68207;50.078;19.936;2023-08-07T13:07:33;3.50;;;2.20;;
78856;SDS011;68207;50.078;19.936;2023-08-07T13:09:58;5.00;;;2.60;;
78856;SDS011;68207;50.078;19.936;2023-08-07T13:12:24;4.40;;;2.60;;
78856;SDS011;68207;50.078;19.936;2023-08-07T13:14:49;7.50;;;3.10;;
78856;SDS011;68207;50.078;19.936;2023-08-07T13:17:14;7.60;;;3.50;;
78856;SDS011;68207;50.078;19.936;2023-08-07T13:19:39;6.40;;;3.50;;
78856;SDS011;68207;50.078;19.936;2023-08-07T13:22:04;9.60;;;4.00;;
78856;SDS011;68207;50.078;19.936;2023-08-07T13:24:30;6.00;;;4.10;;
78856;SDS011;68207;50.078;19.936;2023-08-07T13:26:55;5.20;;;3.50;;
78856;SDS011;68207;50.078;19.936;2023-08-07T13:29:20;7.00;;;3.40;;
78856;SDS011;68207;50.078;19.936;2023-08-07T13:31:46;4.70;;;3.00;;
78856;SDS011;68207;50.078;19.936;2023-08-07T13:34:12;6.20;;;2.80;;
78856;SDS011;68207;50.078;19.936;2023-08-07T13:36:37;3.40;;;2.30;;
78856;SDS011;68207;50.078;19.936;2023-08-07T13:39:05;5.50;;;2.50;;
78856;SDS011;68207;50.078;19.936;2023-08-07T13:41:31;2.80;;;2.00;;
78856;SDS011;68207;50.078;19.936;2023-08-07T13:43:56;3.20;;;1.90;;
78856;SDS011;68207;50.078;19.936;2023-08-07T13:46:21;4.30;;;1.90;;
78856;SDS011;68207;50.078;19.936;2023-08-07T13:48:47;7.40;;;2.90;;
78856;SDS011;68207;50.078;19.936;2023-08-07T13:51:13;4.10;;;2.50;;
78856;SDS011;68207;50.078;19.936;2023-08-07T13:53:38;3.50;;;2.10;;
78856;SDS011;68207;50.078;19.936;2023-08-07T13:56:04;3.50;;;2.20;;
78856;SDS011;68207;50.078;19.936;2023-08-07T13:58:29;3.90;;;2.30;;
78856;SDS011;68207;50.078;19.936;2023-08-07T14:00:55;3.10;;;2.20;;
78856;SDS011;68207;50.078;19.936;2023-08-07T14:03:21;3.70;;;1.80;;
78856;SDS011;68207;50.078;19.936;2023-08-07T14:05:46;3.60;;;2.20;;
78856;SDS011;68207;50.078;19.936;2023-08-07T14:08:11;4.40;;;1.80;;
78856;SDS011;68207;50.078;19.936;2023-08-07T14:10:36;5.30;;;2.10;;
78856;SDS011;68207;50.078;19.936;2023-08-07T14:13:04;2.50;;;2.00;;
78856;SDS011;68207;50.078;19.936;2023-08-07T14:15:29;3.00;;;1.90;;
78856;SDS011;68207;50.078;19.936;2023-08-07T14:17:54;4.00;;;2.30;;
78856;SDS011;68207;50.078;19.936;2023-08-07T14:20:20;3.40;;;2.00;;
78856;SDS011;68207;50.078;19.936;2023-08-07T14:22:46;2.90;;;2.20;;
78856;SDS011;68207;50.078;19.936;2023-08-07T14:25:11;2.50;;;1.80;;
78856;SDS011;68207;50.078;19.936;2023-08-07T14:27:36;3.50;;;2.00;;
78856;SDS011;68207;50.078;19.936;2023-08-07T14:30:02;3.90;;;2.40;;
78856;SDS011;68207;50.078;19.936;2023-08-07T14:32:27;3.60;;;2.20;;
78856;SDS011;68207;50.078;19.936;2023-08-07T14:34:52;3.00;;;2.10;;
78856;SDS011;68207;50.078;19.936;2023-08-07T14:37:17;3.50;;;2.60;;
78856;SDS011;68207;50.078;19.936;2023-08-07T14:39:43;2.70;;;1.90;;
78856;SDS011;68207;50.078;19.936;2023-08-07T14:42:08;3.90;;;2.40;;
78856;SDS011;68207;50.078;19.936;2023-08-07T14:44:33;5.10;;;2.00;;